TFFR/PTP METAR and TAF weather

Enter ICAO airport designator
Station Type Date Time Source
TFFR METAR 2019/04/25 17:30 UTC NOAA

TFFR 251730Z AUTO 08008KT 050V110 9999 -RA SCT016/// BKN023/// BKN031/// ///TCU 27/23 Q1015


Station Type Date Time Source
TFFR Decoded METAR 2019/04/25 17:30 UTC NOAA

Le Raizet, Guadeloupe, Guadeloupe (TFFR) 16-16N 061-31W 11M
Apr 25, 2019 - 01:30 PM EDT / 2019.04.25 1730 UTC
Wind: from the E (080 degrees) at 9 MPH (8 KT) (direction variable):0
Visibility: greater than 7 mile(s):0
Sky conditions: mostly cloudy
Weather: light rain; Towering cumulus clouds observed
Temperature: 80 F (27 C)
Dew Point: 73 F (23 C)
Relative Humidity: 78%
Pressure (altimeter): 29.97 in. Hg (1015 hPa)
ob: TFFR 251730Z AUTO 08008KT 050V110 9999 -RA SCT016/// BKN023/// BKN031/// ///TCU 27/23 Q1015
cycle: 17

Station Type Date Time Source
TFFR TAF 2019/04/24 22:03 UTC NOAA

TAF TFFR 242259Z 2422/2518 CNL

Example: see airport list